Terminal Aerodrome Forecast
Issued by NWS

Home | Current Version | Previous Version | Text Only | Print | Product List | Glossary On
Versions: 1 2 3 4 5 6 7 8 9 10 11 12 13 14 15 16 17
000
FTUS46 KPDT 291800 AAA
TAFBDN
TAF AMD
KBDN 291852Z 2919/3018 35005KT 6SM BR BKN002 OVC005
      TEMPO 2920/2921 6SM BR BKN009
     FM292100 02005KT P6SM SCT015 OVC150
     FM300500 VRB04KT P6SM OVC004
     FM301000 VRB03KT 1/2SM FG OVC001=

USA.gov is the U.S. government's official web portal to all federal, state and local government web resources and services.